createdAt,value
2019-04-27T00:01:56.766Z,8.90
2019-04-27T00:04:29.774Z,8.90
2019-04-27T00:07:03.066Z,8.80
2019-04-27T00:09:36.018Z,8.80
2019-04-27T00:12:08.786Z,8.80
2019-04-27T00:14:37.571Z,8.80
2019-04-27T00:17:21.023Z,8.80
2019-04-27T00:19:48.919Z,8.80
2019-04-27T00:22:31.167Z,8.80
2019-04-27T00:24:59.857Z,8.80
2019-04-27T00:27:28.534Z,8.90
2019-04-27T00:29:57.175Z,8.90
2019-04-27T00:32:25.846Z,8.90
2019-04-27T00:34:54.485Z,8.90
2019-04-27T00:37:34.064Z,8.90
2019-04-27T00:40:04.345Z,8.80
2019-04-27T00:42:33.364Z,8.80
2019-04-27T00:45:05.436Z,8.90
2019-04-27T00:47:35.048Z,8.80
2019-04-27T00:50:05.853Z,8.80
2019-04-27T00:52:34.876Z,8.80
2019-04-27T00:55:05.621Z,8.80
2019-04-27T00:57:38.855Z,8.70
2019-04-27T01:00:18.420Z,8.70
2019-04-27T01:02:51.486Z,8.70
2019-04-27T01:05:23.112Z,8.70
2019-04-27T01:07:53.612Z,8.70
2019-04-27T01:10:23.331Z,8.60
2019-04-27T01:12:53.145Z,8.60
2019-04-27T01:15:23.691Z,8.60
2019-04-27T01:17:52.272Z,8.60
2019-04-27T01:20:20.890Z,8.50
2019-04-27T01:22:49.590Z,8.50
2019-04-27T01:25:18.825Z,8.50
2019-04-27T01:27:51.940Z,8.50
2019-04-27T01:30:31.013Z,8.40
2019-04-27T01:32:59.705Z,8.40
2019-04-27T01:35:28.878Z,8.40
2019-04-27T01:40:29.374Z,8.30
2019-04-27T01:42:58.878Z,8.20
2019-04-27T01:45:29.005Z,8.20
2019-04-27T01:47:59.445Z,8.20
2019-04-27T01:50:29.012Z,8.20
2019-04-27T01:52:58.724Z,8.10
2019-04-27T01:55:27.589Z,8.10
2019-04-27T01:57:56.283Z,8.10
2019-04-27T02:00:35.218Z,8.10
2019-04-27T02:03:05.494Z,8.10
2019-04-27T02:05:39.142Z,8.00
2019-04-27T02:08:09.493Z,8.00
2019-04-27T02:10:39.612Z,8.00
2019-04-27T02:13:08.932Z,8.00
2019-04-27T02:15:39.435Z,7.90
2019-04-27T02:18:09.458Z,7.90
2019-04-27T02:20:38.927Z,7.80
2019-04-27T02:23:09.071Z,7.90
2019-04-27T02:25:39.545Z,7.80
2019-04-27T02:28:09.967Z,7.90
2019-04-27T02:30:42.706Z,7.90
2019-04-27T02:33:30.239Z,7.90
2019-04-27T02:36:00.338Z,7.90
2019-04-27T02:38:30.533Z,7.80
2019-04-27T02:41:00.166Z,7.80
2019-04-27T02:43:30.452Z,7.80
2019-04-27T02:46:00.390Z,7.80
2019-04-27T02:48:29.658Z,7.80
2019-04-27T02:51:10.061Z,7.90
2019-04-27T02:53:55.301Z,7.80
2019-04-27T02:56:24.709Z,7.80
2019-04-27T02:58:53.383Z,7.90
2019-04-27T03:01:24.467Z,7.90
2019-04-27T03:03:53.148Z,8.00
2019-04-27T03:06:21.926Z,8.00
2019-04-27T03:08:53.919Z,8.00
2019-04-27T03:11:23.566Z,8.00
2019-04-27T03:13:52.823Z,8.10
2019-04-27T03:16:25.701Z,8.10
2019-04-27T03:19:14.925Z,8.10
2019-04-27T03:21:42.648Z,8.10
2019-04-27T03:24:11.306Z,8.10
2019-04-27T03:26:41.966Z,8.10
2019-04-27T03:29:10.609Z,8.10
2019-04-27T03:31:46.155Z,8.10
2019-04-27T03:34:15.742Z,8.00
2019-04-27T03:39:10.113Z,8.10
2019-04-27T03:41:41.111Z,8.10
2019-04-27T03:44:09.952Z,8.00
2019-04-27T03:46:39.724Z,8.00
2019-04-27T03:49:09.765Z,8.00
2019-04-27T03:51:40.364Z,8.00
2019-04-27T03:54:10.914Z,8.00
2019-04-27T03:56:41.232Z,8.00
2019-04-27T03:59:11.519Z,8.00
2019-04-27T04:06:39.926Z,8.00
2019-04-27T04:14:16.111Z,7.90
2019-04-27T04:21:50.395Z,7.90
2019-04-27T04:24:19.905Z,8.10
2019-04-27T04:31:50.351Z,8.10
2019-04-27T04:34:19.800Z,7.90
2019-04-27T04:36:50.408Z,7.70
2019-04-27T04:39:19.758Z,7.60
2019-04-27T04:42:02.620Z,7.80
2019-04-27T04:44:44.915Z,7.90
2019-04-27T04:49:59.792Z,7.90
2019-04-27T04:54:49.586Z,8.00
2019-04-27T04:57:19.565Z,8.00
2019-04-27T05:02:19.202Z,8.00
2019-04-27T05:04:49.206Z,8.00
2019-04-27T05:07:19.393Z,7.90
2019-04-27T05:09:48.603Z,7.90
2019-04-27T05:12:18.955Z,8.00
2019-04-27T05:14:48.957Z,8.00
2019-04-27T05:17:19.469Z,8.10
2019-04-27T05:19:49.139Z,8.10
2019-04-27T05:22:19.421Z,8.10
2019-04-27T05:24:49.879Z,8.20
2019-04-27T05:27:19.144Z,8.20
2019-04-27T05:29:48.817Z,8.30
2019-04-27T05:34:49.412Z,8.40
2019-04-27T05:37:27.071Z,8.50
2019-04-27T05:42:19.965Z,8.50
2019-04-27T05:44:55.406Z,8.50
2019-04-27T05:47:25.620Z,8.70
2019-04-27T05:49:55.869Z,8.70
2019-04-27T05:52:30.083Z,8.80
2019-04-27T05:54:59.480Z,8.80
2019-04-27T05:57:30.994Z,8.80
2019-04-27T06:00:01.922Z,8.90
2019-04-27T06:02:30.411Z,8.80
2019-04-27T06:05:00.081Z,9.00
2019-04-27T06:07:29.590Z,9.00
2019-04-27T06:09:59.909Z,8.90
2019-04-27T06:12:29.713Z,8.80
2019-04-27T06:14:59.865Z,8.80
2019-04-27T06:17:29.913Z,8.70
2019-04-27T06:19:59.422Z,8.70
2019-04-27T06:22:29.185Z,8.60
2019-04-27T06:24:59.755Z,8.50
2019-04-27T06:27:30.600Z,8.50
2019-04-27T06:32:29.593Z,8.50
2019-04-27T06:34:59.092Z,8.50
2019-04-27T06:37:29.316Z,8.50
2019-04-27T06:39:59.812Z,8.50
2019-04-27T06:47:29.518Z,8.50
2019-04-27T06:49:58.692Z,8.60
2019-04-27T06:52:29.178Z,8.80
2019-04-27T06:54:57.817Z,8.80
2019-04-27T06:57:26.518Z,8.80
2019-04-27T06:59:55.063Z,9.10
2019-04-27T07:02:23.659Z,9.20
2019-04-27T07:04:52.241Z,9.10
2019-04-27T07:07:20.804Z,9.30
2019-04-27T07:09:49.495Z,9.10
2019-04-27T07:12:19.075Z,9.10
2019-04-27T07:14:52.898Z,9.10
2019-04-27T07:17:19.023Z,9.30
2019-04-27T07:19:49.577Z,9.30
2019-04-27T07:22:19.894Z,9.20
2019-04-27T07:24:49.033Z,9.30
2019-04-27T07:27:19.198Z,9.40
2019-04-27T07:29:49.502Z,9.40
2019-04-27T07:32:19.281Z,9.50
2019-04-27T07:34:49.668Z,9.40
2019-04-27T07:37:19.529Z,9.70
2019-04-27T07:39:49.208Z,9.70
2019-04-27T07:42:20.825Z,9.80
2019-04-27T07:44:52.873Z,10.00
2019-04-27T07:47:22.975Z,10.20
2019-04-27T07:49:51.598Z,10.40
2019-04-27T07:52:20.595Z,10.70
2019-04-27T07:54:49.494Z,11.00
2019-04-27T07:57:19.801Z,11.00
2019-04-27T07:59:50.168Z,11.70
2019-04-27T08:02:19.224Z,11.80
2019-04-27T08:04:49.800Z,12.00
2019-04-27T08:07:19.703Z,12.10
2019-04-27T08:09:49.686Z,12.40
2019-04-27T08:12:20.675Z,12.40
2019-04-27T08:14:49.182Z,12.70
2019-04-27T08:17:19.130Z,12.70
2019-04-27T08:19:49.614Z,12.60
2019-04-27T08:22:19.403Z,12.80
2019-04-27T08:24:49.710Z,13.10
2019-04-27T08:27:36.599Z,13.10
2019-04-27T08:30:13.103Z,13.10
2019-04-27T08:32:43.846Z,13.00
2019-04-27T08:35:12.678Z,12.90
2019-04-27T08:37:41.355Z,12.80
2019-04-27T08:40:11.845Z,13.10
2019-04-27T08:42:40.403Z,13.30
2019-04-27T08:45:09.505Z,13.90
2019-04-27T08:47:39.474Z,14.30
2019-04-27T08:50:09.191Z,14.70
2019-04-27T08:52:39.376Z,14.70
2019-04-27T08:55:09.541Z,14.80
2019-04-27T08:57:38.914Z,14.60
2019-04-27T09:00:11.154Z,14.70
2019-04-27T09:02:46.538Z,14.50
2019-04-27T09:05:10.035Z,14.30
2019-04-27T09:07:49.617Z,14.70
2019-04-27T09:10:20.334Z,15.40
2019-04-27T09:13:08.734Z,15.00
2019-04-27T09:15:49.346Z,15.40
2019-04-27T09:18:19.668Z,16.00
2019-04-27T09:20:49.984Z,16.80
2019-04-27T09:23:18.882Z,17.20
2019-04-27T09:25:49.415Z,17.80
2019-04-27T09:28:17.958Z,17.90
2019-04-27T09:30:46.576Z,17.10
2019-04-27T09:33:15.139Z,16.30
2019-04-27T09:35:43.847Z,15.40
2019-04-27T09:38:12.681Z,15.40
2019-04-27T09:40:41.240Z,15.10
2019-04-27T09:43:09.941Z,14.70
2019-04-27T09:45:38.509Z,14.80
2019-04-27T09:48:08.115Z,14.90
2019-04-27T09:50:36.686Z,14.60
2019-04-27T09:53:06.411Z,14.50
2019-04-27T09:55:36.836Z,14.40
2019-04-27T09:58:05.846Z,14.30
2019-04-27T10:00:36.346Z,14.30
2019-04-27T10:03:06.591Z,14.40
2019-04-27T10:05:36.749Z,14.40
2019-04-27T10:08:06.156Z,15.90
2019-04-27T10:10:37.007Z,17.40
2019-04-27T10:13:06.987Z,17.40
2019-04-27T10:15:35.852Z,16.50
2019-04-27T10:18:06.667Z,16.10
2019-04-27T10:20:39.013Z,15.70
2019-04-27T10:23:06.259Z,15.90
2019-04-27T10:25:37.459Z,17.40
2019-04-27T10:28:06.776Z,18.40
2019-04-27T10:30:35.934Z,20.10
2019-04-27T10:33:05.993Z,20.10
2019-04-27T10:35:36.325Z,20.00
2019-04-27T10:38:05.196Z,20.20
2019-04-27T10:40:33.896Z,19.70
2019-04-27T10:43:02.505Z,18.40
2019-04-27T10:45:31.152Z,17.40
2019-04-27T10:47:59.794Z,16.80
2019-04-27T10:50:28.322Z,16.30
2019-04-27T10:52:59.362Z,16.20
2019-04-27T10:55:27.337Z,16.40
2019-04-27T10:57:55.959Z,16.60
2019-04-27T11:00:26.314Z,18.20
2019-04-27T11:02:56.592Z,19.10
2019-04-27T11:05:31.101Z,18.40
2019-04-27T11:07:59.169Z,17.30
2019-04-27T11:10:27.789Z,16.40
2019-04-27T11:12:56.400Z,16.20
2019-04-27T11:15:26.362Z,15.80
2019-04-27T11:17:56.115Z,16.00
2019-04-27T11:20:27.567Z,16.90
2019-04-27T11:23:06.678Z,16.50
2019-04-27T11:25:26.344Z,16.00
2019-04-27T11:27:55.925Z,15.70
2019-04-27T11:30:25.354Z,15.60
2019-04-27T11:32:56.716Z,17.00
2019-04-27T11:35:42.748Z,18.80
2019-04-27T11:38:11.488Z,19.90
2019-04-27T11:40:40.173Z,20.20
2019-04-27T11:43:08.690Z,18.70
2019-04-27T11:45:37.397Z,18.60
2019-04-27T11:48:06.016Z,18.20
2019-04-27T11:50:35.777Z,17.90
2019-04-27T11:53:06.218Z,17.30
2019-04-27T11:55:34.818Z,16.90
2019-04-27T11:58:03.560Z,16.60
2019-04-27T12:00:32.687Z,16.60
2019-04-27T12:03:01.313Z,16.90
2019-04-27T12:05:29.998Z,17.20
2019-04-27T12:07:58.702Z,17.70
2019-04-27T12:10:27.308Z,19.20
2019-04-27T12:12:56.396Z,19.20
2019-04-27T12:15:26.265Z,18.60
2019-04-27T12:17:56.172Z,19.50
2019-04-27T12:20:25.792Z,18.30
2019-04-27T12:22:54.585Z,17.50
2019-04-27T12:25:23.265Z,16.80
2019-04-27T12:27:56.249Z,16.40
2019-04-27T12:30:29.633Z,16.10
2019-04-27T12:32:58.286Z,15.70
2019-04-27T12:35:26.885Z,15.40
2019-04-27T12:37:56.016Z,15.40
2019-04-27T12:40:26.689Z,15.20
2019-04-27T12:42:55.119Z,15.00
2019-04-27T12:45:23.981Z,15.00
2019-04-27T12:47:52.533Z,14.90
2019-04-27T12:50:21.341Z,15.00
2019-04-27T12:52:57.414Z,15.00
2019-04-27T12:55:44.163Z,15.10
2019-04-27T12:58:16.293Z,15.00
2019-04-27T13:00:46.239Z,14.90
2019-04-27T13:03:16.100Z,15.80
2019-04-27T13:05:44.867Z,16.60
2019-04-27T13:08:13.498Z,16.40
2019-04-27T13:10:42.111Z,16.50
2019-04-27T13:13:10.739Z,16.60
2019-04-27T13:15:42.164Z,16.90
2019-04-27T13:18:10.913Z,17.80
2019-04-27T13:20:41.466Z,19.00
2019-04-27T13:23:10.262Z,18.90
2019-04-27T13:25:39.067Z,19.50
2019-04-27T13:28:08.147Z,20.30
2019-04-27T13:30:37.574Z,18.90
2019-04-27T13:33:06.302Z,17.80
2019-04-27T13:35:35.563Z,17.00
2019-04-27T13:38:04.255Z,16.50
2019-04-27T13:40:35.668Z,16.20
2019-04-27T13:43:12.091Z,15.90
2019-04-27T13:45:51.254Z,16.00
2019-04-27T13:48:37.017Z,16.00
2019-04-27T13:51:07.280Z,16.70
2019-04-27T13:53:36.784Z,18.20
2019-04-27T13:56:14.892Z,18.70
2019-04-27T13:58:44.616Z,19.30
2019-04-27T14:01:13.490Z,20.60
2019-04-27T14:03:42.214Z,21.70
2019-04-27T14:06:10.962Z,21.40
2019-04-27T14:08:39.686Z,19.80
2019-04-27T14:11:09.538Z,19.50
2019-04-27T14:13:39.256Z,19.40
2019-04-27T14:16:08.731Z,19.10
2019-04-27T14:18:38.463Z,19.90
2019-04-27T14:21:09.422Z,19.50
2019-04-27T14:23:38.700Z,19.00
2019-04-27T14:26:08.829Z,19.00
2019-04-27T14:28:38.100Z,18.80
2019-04-27T14:31:08.856Z,18.80
2019-04-27T14:33:39.613Z,18.50
2019-04-27T14:36:08.281Z,17.70
2019-04-27T14:38:37.232Z,17.00
2019-04-27T14:41:06.507Z,16.70
2019-04-27T14:43:36.129Z,16.40
2019-04-27T14:46:04.899Z,16.10
2019-04-27T14:48:33.705Z,15.90
2019-04-27T14:51:02.446Z,15.50
2019-04-27T14:53:30.994Z,15.20
2019-04-27T14:55:59.526Z,15.20
2019-04-27T14:58:28.462Z,14.80
2019-04-27T15:00:58.481Z,14.90
2019-04-27T15:03:27.268Z,14.80
2019-04-27T15:05:56.306Z,14.90
2019-04-27T15:08:25.557Z,15.00
2019-04-27T15:10:54.369Z,15.00
2019-04-27T15:13:23.017Z,15.20
2019-04-27T15:15:51.659Z,15.30
2019-04-27T15:18:20.354Z,15.30
2019-04-27T15:20:48.980Z,15.20
2019-04-27T15:23:17.548Z,15.10
2019-04-27T15:25:47.161Z,15.00
2019-04-27T15:28:17.561Z,15.00
2019-04-27T15:30:50.853Z,14.80
2019-04-27T15:33:38.848Z,14.80
2019-04-27T15:36:19.326Z,14.70
2019-04-27T15:38:50.562Z,14.70
2019-04-27T15:41:30.415Z,14.70
2019-04-27T15:43:59.628Z,14.80
2019-04-27T15:46:29.491Z,14.80
2019-04-27T15:48:58.946Z,15.00
2019-04-27T15:51:28.331Z,15.00
2019-04-27T15:53:58.739Z,15.00
2019-04-27T15:56:30.510Z,14.90
2019-04-27T15:58:59.926Z,14.90
2019-04-27T16:01:31.249Z,15.00
2019-04-27T16:04:02.581Z,14.80
2019-04-27T16:06:29.448Z,14.70
2019-04-27T16:08:59.060Z,14.80
2019-04-27T16:11:28.218Z,14.90
2019-04-27T16:13:58.639Z,14.80
2019-04-27T16:16:29.147Z,14.80
2019-04-27T16:18:59.390Z,14.70
2019-04-27T16:21:29.166Z,14.70
2019-04-27T16:23:58.446Z,14.70
2019-04-27T16:26:28.558Z,14.50
2019-04-27T16:28:58.088Z,14.50
2019-04-27T16:31:30.221Z,14.40
2019-04-27T16:34:01.390Z,14.30
2019-04-27T16:36:28.930Z,14.30
2019-04-27T16:39:08.218Z,14.30
2019-04-27T16:41:38.902Z,14.30
2019-04-27T16:44:10.967Z,14.30
2019-04-27T16:46:42.801Z,14.30
2019-04-27T16:49:13.851Z,14.40
2019-04-27T16:51:40.403Z,14.40
2019-04-27T16:54:13.061Z,14.40
2019-04-27T16:56:39.543Z,14.30
2019-04-27T16:59:33.987Z,14.20
2019-04-27T17:01:40.124Z,14.10
2019-04-27T17:04:13.529Z,14.00
2019-04-27T17:06:45.671Z,14.00
2019-04-27T17:09:11.761Z,14.00
2019-04-27T17:11:50.414Z,14.10
2019-04-27T17:14:28.924Z,14.00
2019-04-27T17:16:58.475Z,14.00
2019-04-27T17:19:31.252Z,14.00
2019-04-27T17:22:10.475Z,14.00
2019-04-27T17:24:49.165Z,14.00
2019-04-27T17:27:26.628Z,14.00
2019-04-27T17:30:01.565Z,14.00
2019-04-27T17:32:42.371Z,14.00
2019-04-27T17:35:21.570Z,14.00
2019-04-27T17:37:54.216Z,13.90
2019-04-27T17:40:29.766Z,14.00
2019-04-27T17:42:59.728Z,14.00
2019-04-27T17:45:39.743Z,14.00
2019-04-27T17:48:14.347Z,13.80
2019-04-27T17:50:49.612Z,13.70
2019-04-27T17:53:42.031Z,13.00
2019-04-27T17:56:48.389Z,12.10
2019-04-27T17:59:04.884Z,11.70
2019-04-27T18:01:44.828Z,11.50
2019-04-27T18:04:51.510Z,11.50
2019-04-27T18:10:38.777Z,11.50
2019-04-27T18:13:25.471Z,11.40
2019-04-27T18:19:40.289Z,11.40
2019-04-27T18:23:08.383Z,11.40
2019-04-27T18:25:35.560Z,11.30
2019-04-27T18:28:32.027Z,11.20
2019-04-27T18:31:18.913Z,11.00
2019-04-27T18:33:53.669Z,10.70
2019-04-27T18:36:26.785Z,10.60
2019-04-27T18:39:05.618Z,10.40
2019-04-27T18:42:00.951Z,10.40
2019-04-27T18:45:08.740Z,10.10
2019-04-27T19:12:39.334Z,9.50
2019-04-27T19:18:33.579Z,9.20
2019-04-27T19:24:44.996Z,9.10
2019-04-27T19:28:02.749Z,9.10
2019-04-27T19:31:25.760Z,9.10
2019-04-27T19:34:24.571Z,9.10
2019-04-27T19:37:18.269Z,9.10
2019-04-27T19:40:09.777Z,9.10
2019-04-27T19:43:19.026Z,9.30
2019-04-27T20:19:53.335Z,9.10
2019-04-27T20:25:44.146Z,9.10
2019-04-27T20:35:08.780Z,8.70
2019-04-27T20:47:38.360Z,8.60
2019-04-27T20:50:17.053Z,8.50
2019-04-27T20:52:51.701Z,8.60
2019-04-27T20:55:27.978Z,8.50
2019-04-27T20:58:08.041Z,8.40
2019-04-27T21:00:42.016Z,8.40
2019-04-27T21:03:15.939Z,8.30
2019-04-27T21:05:53.604Z,8.30
2019-04-27T21:08:24.768Z,8.20
2019-04-27T21:10:54.170Z,8.20
2019-04-27T21:13:23.225Z,8.10
2019-04-27T21:15:53.486Z,8.10
2019-04-27T21:18:23.342Z,8.10
2019-04-27T21:20:53.156Z,8.10
2019-04-27T21:23:23.089Z,8.00
2019-04-27T21:25:53.583Z,7.90
2019-04-27T21:28:22.926Z,7.90
2019-04-27T21:30:53.118Z,7.90
2019-04-27T21:33:22.995Z,7.90
2019-04-27T21:35:51.962Z,7.90
2019-04-27T21:38:21.021Z,7.90
2019-04-27T21:40:50.927Z,8.00
2019-04-27T21:43:21.592Z,8.10
2019-04-27T21:45:51.184Z,8.10
2019-04-27T21:48:21.229Z,8.20
2019-04-27T21:50:51.623Z,8.10
2019-04-27T21:53:27.991Z,8.10
2019-04-27T21:56:04.742Z,8.10
2019-04-27T21:58:33.530Z,8.10
2019-04-27T22:01:13.412Z,8.10
2019-04-27T22:03:42.307Z,8.20
2019-04-27T22:06:11.651Z,8.10
2019-04-27T22:08:41.029Z,8.10
2019-04-27T22:11:11.757Z,8.10
2019-04-27T22:13:41.060Z,8.00
2019-04-27T22:16:12.741Z,8.00
2019-04-27T22:18:41.689Z,8.00
2019-04-27T22:21:11.477Z,8.10
2019-04-27T22:23:42.094Z,8.00
2019-04-27T22:26:11.271Z,8.00
2019-04-27T22:28:48.770Z,8.00
2019-04-27T22:31:12.574Z,8.00
2019-04-27T22:33:42.976Z,8.00
2019-04-27T22:36:11.887Z,8.00
2019-04-27T22:38:41.296Z,8.00
2019-04-27T22:41:26.742Z,8.00
2019-04-27T22:44:13.426Z,7.90
2019-04-27T22:46:43.782Z,7.90
2019-04-27T22:49:12.394Z,8.00
2019-04-27T22:51:43.161Z,7.90
2019-04-27T22:54:11.753Z,7.80
2019-04-27T22:56:42.228Z,7.80
2019-04-27T22:59:12.603Z,7.70
2019-04-27T23:04:18.847Z,7.70
2019-04-27T23:06:47.537Z,7.60
2019-04-27T23:09:16.134Z,7.60
2019-04-27T23:11:44.761Z,7.60
2019-04-27T23:14:13.388Z,7.50
2019-04-27T23:16:43.744Z,7.50
2019-04-27T23:19:12.431Z,7.50
2019-04-27T23:21:41.182Z,7.50
2019-04-27T23:24:09.798Z,7.50
2019-04-27T23:26:38.446Z,7.40
2019-04-27T23:29:13.753Z,7.40
2019-04-27T23:31:44.640Z,7.50
2019-04-27T23:34:13.337Z,7.40
2019-04-27T23:36:44.162Z,7.40
2019-04-27T23:39:12.162Z,7.50
2019-04-27T23:41:40.713Z,7.30
2019-04-27T23:44:09.311Z,7.30
2019-04-27T23:46:37.953Z,7.30
2019-04-27T23:49:06.421Z,7.30
2019-04-27T23:51:36.628Z,7.30
2019-04-27T23:54:07.060Z,7.30
2019-04-27T23:59:03.970Z,7.30
